Bluewell, West Virginia
Current Conditions -  °F | °C
As of 5:26 AM on Thursday 23 Oct 2014 (Local Time) from KBLF Reporting Station
Overcast Overcast  
Wind Chill:   Ceiling: 900
Heat Index:   Visibility: 10mi
Dew Point:   Wind: 6mph
Humidity: 82%   Direction: 340°NNW
Pressure: 30.15"   Gusts: NA
Location:  37.2994°N, 81.226°W
Report Text: KBLF 230926Z AUTO 34005KT 10SM BKN009 OVC012 06/03 A3015 RMK AO2 CIG 006V010 T00610033
Loading
Personal Weather Stations






























Interactive Weather Map
Tropical Storm Tracking
New forecast layout! Learn more

10-Day Weather Forecast

Advertisements
Track Severe Weather on mobile